Facebook Twitter

Wetterstation Reutte

Messwerte
  Temperatur Wetter Niederschlag Luftdruck Wind
So, 22:00 Uhr 5° - 0 mm 1019.4 hPa 7 km/h SW
So, 21:00 Uhr 7° - 0 mm 1018.9 hPa 11 km/h S
So, 20:00 Uhr 6° - 0 mm 1019.6 hPa 4 km/h SO
So, 19:00 Uhr 7° - 0 mm 1019.3 hPa 4 km/h SW
So, 18:00 Uhr 9° - 0 mm 1018.2 hPa 4 km/h SW
So, 17:00 Uhr 10° - 0 mm 1017.6 hPa 7 km/h SW
So, 16:00 Uhr 13° - 0 mm 1016.7 hPa 7 km/h S
So, 15:00 Uhr 13° - 0 mm 1017.8 hPa 7 km/h SW
So, 14:00 Uhr 12° - 0 mm 1019 hPa 7 km/h SW
So, 13:00 Uhr 11° - 0 mm 1020.1 hPa 7 km/h SW
So, 12:00 Uhr 11° - 0 mm 1020.7 hPa 4 km/h NW
So, 11:00 Uhr 8° - 0 mm 1021.7 hPa 4 km/h S
So, 10:00 Uhr 5° - 0 mm 1022.8 hPa 7 km/h S
So, 09:00 Uhr 4° - 0 mm 1023.8 hPa 7 km/h S
So, 08:00 Uhr 3° - 0 mm 1024.5 hPa 7 km/h S
So, 07:00 Uhr 1° - 0 mm 1025.5 hPa 7 km/h SW
So, 06:00 Uhr 1° - 0 mm 1025.5 hPa 4 km/h SW
So, 05:00 Uhr 1° - 0 mm 1025.6 hPa 7 km/h SO
So, 04:00 Uhr 2° - 0 mm 1025.8 hPa 7 km/h S
So, 03:00 Uhr 2° - 0 mm 1026.9 hPa 4 km/h S

Alle Zeitangaben MEZ